createdAt,value
2018-07-17T00:00:50.128Z,45.70
2018-07-17T00:03:19.002Z,45.80
2018-07-17T00:05:47.881Z,46.10
2018-07-17T00:08:16.716Z,46.10
2018-07-17T00:10:45.572Z,47.50
2018-07-17T00:13:14.400Z,47.10
2018-07-17T00:15:43.265Z,46.90
2018-07-17T00:18:12.167Z,47.30
2018-07-17T00:20:40.982Z,46.90
2018-07-17T00:23:09.812Z,46.80
2018-07-17T00:25:38.722Z,47.50
2018-07-17T00:28:07.519Z,47.60
2018-07-17T00:30:36.397Z,48.30
2018-07-17T00:33:05.247Z,48.20
2018-07-17T00:35:34.075Z,48.30
2018-07-17T00:38:03.188Z,48.20
2018-07-17T00:40:32.035Z,48.20
2018-07-17T00:43:00.854Z,48.20
2018-07-17T00:45:29.814Z,49.10
2018-07-17T00:47:58.684Z,48.60
2018-07-17T00:50:27.548Z,49.40
2018-07-17T00:52:56.409Z,49.20
2018-07-17T00:55:25.244Z,48.80
2018-07-17T00:57:54.156Z,48.20
2018-07-17T01:00:27.200Z,48.20
2018-07-17T01:03:01.419Z,48.40
2018-07-17T01:05:35.668Z,48.20
2018-07-17T01:08:09.999Z,48.20
2018-07-17T01:10:44.331Z,48.10
2018-07-17T01:13:15.267Z,48.10
2018-07-17T01:15:44.204Z,48.10
2018-07-17T01:18:13.027Z,48.10
2018-07-17T01:20:41.889Z,48.20
2018-07-17T01:23:10.756Z,48.80
2018-07-17T01:25:39.571Z,48.20
2018-07-17T01:28:08.396Z,48.20
2018-07-17T01:30:37.296Z,48.20
2018-07-17T01:33:06.110Z,48.20
2018-07-17T01:35:34.948Z,48.20
2018-07-17T01:38:03.799Z,48.20
2018-07-17T01:40:32.664Z,48.10
2018-07-17T01:43:01.564Z,48.80
2018-07-17T01:45:30.332Z,48.60
2018-07-17T01:47:59.210Z,48.80
2018-07-17T01:50:28.012Z,49.20
2018-07-17T01:52:56.855Z,49.10
2018-07-17T01:55:25.702Z,48.70
2018-07-17T01:57:54.596Z,48.80
2018-07-17T02:00:23.420Z,50.00
2018-07-17T02:02:52.330Z,48.90
2018-07-17T02:05:21.198Z,49.10
2018-07-17T02:07:50.036Z,49.10
2018-07-17T02:10:18.913Z,48.70
2018-07-17T02:12:47.768Z,48.60
2018-07-17T02:15:16.626Z,49.50
2018-07-17T02:17:45.455Z,49.40
2018-07-17T02:20:14.246Z,49.00
2018-07-17T02:22:43.106Z,48.10
2018-07-17T02:25:11.967Z,48.10
2018-07-17T02:27:40.817Z,48.10
2018-07-17T02:30:09.664Z,48.10
2018-07-17T02:32:38.512Z,48.10
2018-07-17T02:35:07.353Z,48.10
2018-07-17T02:37:36.260Z,48.10
2018-07-17T02:40:05.313Z,48.10
2018-07-17T02:42:34.185Z,48.10
2018-07-17T02:45:03.012Z,48.10
2018-07-17T02:47:31.858Z,48.10
2018-07-17T02:50:00.737Z,48.10
2018-07-17T02:52:29.582Z,48.00
2018-07-17T02:54:58.444Z,47.90
2018-07-17T02:57:27.236Z,47.10
2018-07-17T02:59:56.065Z,46.40
2018-07-17T03:02:24.976Z,46.30
2018-07-17T03:04:53.908Z,45.40
2018-07-17T03:07:22.712Z,44.80
2018-07-17T03:09:51.564Z,44.60
2018-07-17T03:12:20.381Z,43.80
2018-07-17T03:14:49.237Z,43.30
2018-07-17T03:17:18.116Z,42.90
2018-07-17T03:19:47.001Z,43.20
2018-07-17T03:22:15.913Z,43.10
2018-07-17T03:24:44.907Z,43.40
2018-07-17T03:27:13.865Z,43.10
2018-07-17T03:29:42.719Z,42.90
2018-07-17T03:32:11.540Z,43.10
2018-07-17T03:34:40.358Z,43.00
2018-07-17T03:37:09.224Z,42.20
2018-07-17T03:39:38.076Z,42.10
2018-07-17T03:42:06.973Z,41.70
2018-07-17T03:44:35.767Z,41.80
2018-07-17T03:47:04.819Z,41.60
2018-07-17T03:49:33.824Z,40.00
2018-07-17T03:52:02.703Z,39.40
2018-07-17T03:54:31.498Z,38.80
2018-07-17T03:57:00.311Z,37.70
2018-07-17T03:59:29.133Z,38.60
2018-07-17T04:01:58.037Z,39.30
2018-07-17T04:04:27.002Z,39.20
2018-07-17T04:06:55.746Z,39.30
2018-07-17T04:09:24.624Z,38.80
2018-07-17T04:11:53.413Z,37.60
2018-07-17T04:14:22.263Z,39.10
2018-07-17T04:16:55.192Z,36.50
2018-07-17T04:19:25.433Z,36.60
2018-07-17T04:21:54.235Z,36.60
2018-07-17T04:24:24.009Z,36.70
2018-07-17T04:26:53.598Z,35.40
2018-07-17T04:29:22.601Z,35.00
2018-07-17T04:31:51.494Z,33.60
2018-07-17T04:34:20.316Z,32.50
2018-07-17T04:36:49.168Z,32.50
2018-07-17T04:39:18.004Z,32.70
2018-07-17T04:41:46.857Z,31.30
2018-07-17T04:44:15.721Z,30.40
2018-07-17T04:46:44.589Z,29.70
2018-07-17T04:49:13.440Z,28.80
2018-07-17T04:51:42.292Z,28.30
2018-07-17T04:54:11.153Z,27.80
2018-07-17T04:56:40.090Z,26.20
2018-07-17T04:59:08.921Z,26.20
2018-07-17T05:01:37.804Z,26.20
2018-07-17T05:04:06.550Z,27.30
2018-07-17T05:06:35.375Z,26.30
2018-07-17T05:09:05.382Z,26.50
2018-07-17T05:11:34.257Z,26.60
2018-07-17T05:14:03.175Z,25.70
2018-07-17T05:16:32.306Z,25.00
2018-07-17T05:19:00.952Z,25.70
2018-07-17T05:21:29.846Z,25.30
2018-07-17T05:23:58.683Z,25.50
2018-07-17T05:26:27.564Z,24.80
2018-07-17T05:28:56.444Z,24.80
2018-07-17T05:31:25.250Z,25.00
2018-07-17T05:33:54.112Z,24.60
2018-07-17T05:36:23.077Z,23.40
2018-07-17T05:38:51.965Z,23.20
2018-07-17T05:41:20.860Z,23.10
2018-07-17T05:43:49.732Z,21.90
2018-07-17T05:46:18.528Z,21.70
2018-07-17T05:48:47.356Z,20.20
2018-07-17T05:51:17.032Z,20.60
2018-07-17T05:53:46.047Z,21.10
2018-07-17T05:56:14.925Z,21.20
2018-07-17T05:58:43.771Z,19.50
2018-07-17T06:01:12.599Z,18.30
2018-07-17T06:03:42.297Z,17.30
2018-07-17T06:06:11.185Z,18.30
2018-07-17T06:08:40.055Z,18.60
2018-07-17T06:11:08.879Z,17.30
2018-07-17T06:13:37.779Z,17.30
2018-07-17T06:16:06.631Z,17.40
2018-07-17T06:18:35.451Z,17.40
2018-07-17T06:21:04.275Z,16.90
2018-07-17T06:23:33.106Z,16.20
2018-07-17T06:26:01.968Z,15.90
2018-07-17T06:28:30.811Z,15.60
2018-07-17T06:30:59.650Z,15.60
2018-07-17T06:33:28.442Z,15.50
2018-07-17T06:35:57.366Z,15.70
2018-07-17T06:38:26.187Z,15.00
2018-07-17T06:40:55.005Z,15.00
2018-07-17T06:43:23.823Z,14.50
2018-07-17T06:45:52.634Z,14.50
2018-07-17T06:48:21.517Z,14.60
2018-07-17T06:50:50.393Z,14.60
2018-07-17T06:53:19.239Z,14.60
2018-07-17T06:55:48.088Z,14.80
2018-07-17T06:58:16.906Z,14.60
2018-07-17T07:00:45.773Z,14.50
2018-07-17T07:03:14.648Z,14.80
2018-07-17T07:05:43.491Z,15.30
2018-07-17T07:08:12.366Z,15.10
2018-07-17T07:10:41.199Z,15.60
2018-07-17T07:13:10.085Z,14.80
2018-07-17T07:15:38.874Z,14.40
2018-07-17T07:18:07.822Z,15.60
2018-07-17T07:20:36.879Z,14.90
2018-07-17T07:23:05.903Z,14.90
2018-07-17T07:25:34.766Z,14.20
2018-07-17T07:28:03.644Z,14.30
2018-07-17T07:30:32.510Z,14.40
2018-07-17T07:33:01.398Z,13.40
2018-07-17T07:35:30.224Z,13.10
2018-07-17T07:37:59.095Z,13.10
2018-07-17T07:40:28.864Z,12.50
2018-07-17T07:42:57.802Z,12.60
2018-07-17T07:45:26.612Z,12.80
2018-07-17T07:47:56.274Z,13.00
2018-07-17T07:50:25.824Z,12.50
2018-07-17T07:52:54.903Z,11.90
2018-07-17T07:55:23.744Z,11.60
2018-07-17T07:57:52.612Z,9.90
2018-07-17T08:00:21.469Z,9.50
2018-07-17T08:02:50.492Z,9.10
2018-07-17T08:05:19.284Z,9.10
2018-07-17T08:07:48.126Z,9.70
2018-07-17T08:10:17.051Z,9.80
2018-07-17T08:12:45.956Z,9.40
2018-07-17T08:15:14.750Z,9.80
2018-07-17T08:17:44.100Z,9.20
2018-07-17T08:20:13.032Z,9.30
2018-07-17T08:22:41.855Z,9.10
2018-07-17T08:25:10.679Z,7.40
2018-07-17T08:27:39.502Z,7.60
2018-07-17T08:30:08.461Z,7.40
2018-07-17T08:32:37.315Z,7.00
2018-07-17T08:35:06.139Z,7.20
2018-07-17T08:37:34.976Z,7.10
2018-07-17T08:40:03.868Z,7.00
2018-07-17T08:42:32.728Z,6.50
2018-07-17T08:45:01.613Z,6.80
2018-07-17T08:47:30.439Z,6.70
2018-07-17T08:49:59.262Z,5.80
2018-07-17T08:52:28.178Z,6.00
2018-07-17T08:54:57.009Z,6.60
2018-07-17T08:57:25.852Z,6.30
2018-07-17T08:59:54.728Z,5.40
2018-07-17T09:02:23.559Z,6.20
2018-07-17T09:04:52.404Z,6.00
2018-07-17T09:07:21.251Z,4.90
2018-07-17T09:09:50.135Z,6.10
2018-07-17T09:12:18.975Z,6.90
2018-07-17T09:14:47.791Z,5.20
2018-07-17T09:17:16.606Z,5.60
2018-07-17T09:19:45.484Z,5.40
2018-07-17T09:22:14.303Z,6.00
2018-07-17T09:24:43.127Z,5.50
2018-07-17T09:27:11.964Z,6.20
2018-07-17T09:29:40.800Z,5.90
2018-07-17T09:32:09.681Z,6.50
2018-07-17T09:34:38.532Z,5.90
2018-07-17T09:37:07.405Z,6.50
2018-07-17T09:39:36.297Z,6.20
2018-07-17T09:42:05.158Z,5.90
2018-07-17T09:44:34.022Z,5.10
2018-07-17T09:47:02.884Z,5.60
2018-07-17T09:49:31.712Z,5.70
2018-07-17T09:52:00.599Z,5.30
2018-07-17T09:54:29.450Z,5.50
2018-07-17T09:56:58.256Z,4.70
2018-07-17T09:59:27.067Z,4.70
2018-07-17T10:02:01.253Z,4.60
2018-07-17T10:04:30.164Z,6.10
2018-07-17T10:06:59.015Z,4.90
2018-07-17T10:09:27.893Z,4.80
2018-07-17T10:11:56.660Z,5.30
2018-07-17T10:14:25.581Z,5.70
2018-07-17T10:16:54.411Z,6.00
2018-07-17T10:19:23.253Z,4.50
2018-07-17T10:21:52.079Z,5.30
2018-07-17T10:24:20.926Z,4.70
2018-07-17T10:26:49.933Z,3.70
2018-07-17T10:29:18.768Z,3.70
2018-07-17T10:31:47.576Z,5.10
2018-07-17T10:34:16.375Z,3.80
2018-07-17T10:36:45.259Z,4.70
2018-07-17T10:39:14.118Z,3.70
2018-07-17T10:41:42.947Z,2.70
2018-07-17T10:44:11.768Z,3.10
2018-07-17T10:46:40.661Z,3.20
2018-07-17T10:49:09.494Z,2.90
2018-07-17T10:51:38.316Z,2.80
2018-07-17T10:54:07.409Z,2.10
2018-07-17T10:56:36.239Z,3.20
2018-07-17T10:59:05.347Z,1.80
2018-07-17T11:01:34.201Z,1.50
2018-07-17T11:04:03.028Z,1.00
2018-07-17T11:06:31.885Z,1.00
2018-07-17T11:09:00.732Z,1.00
2018-07-17T11:11:29.572Z,1.00
2018-07-17T11:13:58.444Z,1.00
2018-07-17T11:16:27.278Z,1.00
2018-07-17T11:18:56.066Z,1.00
2018-07-17T11:21:24.911Z,1.00
2018-07-17T11:23:53.736Z,1.00
2018-07-17T11:26:22.550Z,1.00
2018-07-17T11:28:51.365Z,1.00
2018-07-17T11:31:20.216Z,1.00
2018-07-17T11:33:49.007Z,1.00
2018-07-17T11:36:17.836Z,1.00
2018-07-17T11:38:46.771Z,1.00
2018-07-17T11:41:15.487Z,1.00
2018-07-17T11:43:44.362Z,1.00
2018-07-17T11:46:13.259Z,1.00
2018-07-17T11:48:42.052Z,1.00
2018-07-17T11:51:10.863Z,1.00
2018-07-17T11:53:39.655Z,1.00
2018-07-17T11:56:08.535Z,1.00
2018-07-17T11:58:37.375Z,1.00
2018-07-17T12:01:06.369Z,1.00
2018-07-17T12:03:35.236Z,1.00
2018-07-17T12:06:04.090Z,1.00
2018-07-17T12:08:33.033Z,1.00
2018-07-17T12:11:01.875Z,1.00
2018-07-17T12:13:30.711Z,1.00
2018-07-17T12:15:59.528Z,1.00
2018-07-17T12:18:28.401Z,1.00
2018-07-17T12:20:57.245Z,1.00
2018-07-17T12:23:26.027Z,1.00
2018-07-17T12:25:54.832Z,1.00
2018-07-17T12:28:23.741Z,1.00
2018-07-17T12:30:52.530Z,1.00
2018-07-17T12:33:21.367Z,1.00
2018-07-17T12:35:50.213Z,1.00
2018-07-17T12:38:19.047Z,1.00
2018-07-17T12:40:47.889Z,1.00
2018-07-17T12:43:16.752Z,1.00
2018-07-17T12:45:45.757Z,1.00
2018-07-17T12:48:14.563Z,1.00
2018-07-17T12:50:44.365Z,1.00
2018-07-17T12:53:13.581Z,1.00
2018-07-17T12:55:42.661Z,1.00
2018-07-17T12:58:11.512Z,1.00
2018-07-17T13:00:40.359Z,1.00
2018-07-17T13:03:09.215Z,1.00
2018-07-17T13:05:38.066Z,1.00
2018-07-17T13:08:06.864Z,1.00
2018-07-17T13:13:04.393Z,1.00
2018-07-17T13:15:33.265Z,1.00
2018-07-17T13:18:02.080Z,1.00
2018-07-17T13:20:30.956Z,1.00
2018-07-17T13:22:59.746Z,1.00
2018-07-17T13:25:28.564Z,1.00
2018-07-17T13:27:57.410Z,1.00
2018-07-17T13:30:26.224Z,1.00
2018-07-17T13:32:55.011Z,1.00
2018-07-17T13:35:23.866Z,1.00
2018-07-17T13:37:52.676Z,1.00
2018-07-17T13:40:21.514Z,1.00
2018-07-17T13:42:50.396Z,1.00
2018-07-17T13:45:19.230Z,1.00
2018-07-17T13:47:48.147Z,1.00
2018-07-17T13:50:17.095Z,1.00
2018-07-17T13:52:45.909Z,1.00
2018-07-17T13:55:14.767Z,1.00
2018-07-17T13:57:43.631Z,1.00
2018-07-17T14:00:12.494Z,1.00
2018-07-17T14:02:41.287Z,1.00
2018-07-17T14:05:10.145Z,1.00
2018-07-17T14:07:38.950Z,1.00
2018-07-17T14:10:07.789Z,1.00
2018-07-17T14:12:36.653Z,1.00
2018-07-17T14:15:05.596Z,1.00
2018-07-17T14:17:34.534Z,1.00
2018-07-17T14:20:03.565Z,1.00
2018-07-17T14:22:32.407Z,1.00
2018-07-17T14:25:01.318Z,1.00
2018-07-17T14:27:30.198Z,1.00
2018-07-17T14:29:59.004Z,1.00
2018-07-17T14:32:27.888Z,1.00
2018-07-17T14:34:56.724Z,1.00
2018-07-17T14:37:25.548Z,1.00
2018-07-17T14:39:54.391Z,1.00
2018-07-17T14:42:23.241Z,1.00
2018-07-17T14:44:52.090Z,1.00
2018-07-17T14:47:21.116Z,1.00
2018-07-17T14:49:50.030Z,1.00
2018-07-17T14:52:18.885Z,1.00
2018-07-17T14:54:47.704Z,1.00
2018-07-17T14:57:16.575Z,1.00
2018-07-17T14:59:45.441Z,1.00
2018-07-17T15:02:14.325Z,1.00
2018-07-17T15:04:43.249Z,1.00
2018-07-17T15:07:12.096Z,1.00
2018-07-17T15:09:40.932Z,1.00
2018-07-17T15:12:09.712Z,1.00
2018-07-17T15:14:38.572Z,1.00
2018-07-17T15:17:07.362Z,1.00
2018-07-17T15:19:36.192Z,1.00
2018-07-17T15:22:05.045Z,1.00
2018-07-17T15:24:33.886Z,1.00
2018-07-17T15:27:02.744Z,1.00
2018-07-17T15:29:31.595Z,1.00
2018-07-17T15:32:00.467Z,1.00
2018-07-17T15:34:29.351Z,1.00
2018-07-17T15:36:58.190Z,1.00
2018-07-17T15:39:27.073Z,1.00
2018-07-17T15:41:55.870Z,1.00
2018-07-17T15:44:24.758Z,1.00
2018-07-17T15:46:53.595Z,1.00
2018-07-17T15:49:22.457Z,1.00
2018-07-17T15:51:51.343Z,1.00
2018-07-17T15:54:20.135Z,1.00
2018-07-17T15:56:49.017Z,1.00
2018-07-17T15:59:17.810Z,1.00
2018-07-17T16:01:46.699Z,1.00
2018-07-17T16:04:15.543Z,1.00
2018-07-17T16:06:44.463Z,1.00
2018-07-17T16:09:13.320Z,1.00
2018-07-17T16:11:42.160Z,1.00
2018-07-17T16:14:11.132Z,1.00
2018-07-17T16:16:39.904Z,1.00
2018-07-17T16:19:08.741Z,1.00
2018-07-17T16:21:37.636Z,1.00
2018-07-17T16:24:06.474Z,1.00
2018-07-17T16:26:35.316Z,1.00
2018-07-17T16:29:04.225Z,1.00
2018-07-17T16:31:33.052Z,1.00
2018-07-17T16:34:01.906Z,1.00
2018-07-17T16:36:30.741Z,1.00
2018-07-17T16:38:59.563Z,1.00
2018-07-17T16:41:28.411Z,1.00
2018-07-17T16:43:57.358Z,1.00
2018-07-17T16:46:26.170Z,1.00
2018-07-17T16:48:55.025Z,1.00
2018-07-17T16:51:23.924Z,1.00
2018-07-17T16:53:52.791Z,1.50
2018-07-17T16:56:21.679Z,2.50
2018-07-17T16:58:50.536Z,2.10
2018-07-17T17:01:19.529Z,3.40
2018-07-17T17:03:48.320Z,4.60
2018-07-17T17:06:17.141Z,4.70
2018-07-17T17:08:45.979Z,4.30
2018-07-17T17:11:14.841Z,3.50
2018-07-17T17:13:43.737Z,2.40
2018-07-17T17:16:12.572Z,2.20
2018-07-17T17:18:41.449Z,1.80
2018-07-17T17:21:10.326Z,1.00
2018-07-17T17:23:39.159Z,1.00
2018-07-17T17:26:07.971Z,1.00
2018-07-17T17:28:36.931Z,1.00
2018-07-17T17:31:05.825Z,1.00
2018-07-17T17:33:34.653Z,1.00
2018-07-17T17:36:03.512Z,1.00
2018-07-17T17:38:32.370Z,1.00
2018-07-17T17:41:04.140Z,1.00
2018-07-17T17:43:32.977Z,1.00
2018-07-17T17:46:01.886Z,1.00
2018-07-17T17:48:30.747Z,1.00
2018-07-17T17:50:59.653Z,1.00
2018-07-17T17:53:28.438Z,1.00
2018-07-17T17:55:57.293Z,1.00
2018-07-17T17:58:26.153Z,1.00
2018-07-17T18:00:54.980Z,1.00
2018-07-17T18:03:23.861Z,1.00
2018-07-17T18:05:52.715Z,1.00
2018-07-17T18:08:21.561Z,1.00
2018-07-17T18:10:50.370Z,1.00
2018-07-17T18:13:19.301Z,1.00
2018-07-17T18:15:48.123Z,1.00
2018-07-17T18:18:16.931Z,1.90
2018-07-17T18:20:45.791Z,2.50
2018-07-17T18:23:14.677Z,3.60
2018-07-17T18:25:43.512Z,4.60
2018-07-17T18:28:12.415Z,5.70
2018-07-17T18:30:41.326Z,6.80
2018-07-17T18:33:10.197Z,8.10
2018-07-17T18:35:39.044Z,8.90
2018-07-17T18:38:07.954Z,9.40
2018-07-17T18:40:36.827Z,10.40
2018-07-17T18:43:05.639Z,11.10
2018-07-17T18:45:34.463Z,11.60
2018-07-17T18:48:03.372Z,12.10
2018-07-17T18:50:32.254Z,12.50
2018-07-17T18:53:01.130Z,13.20
2018-07-17T18:55:30.001Z,13.70
2018-07-17T18:57:58.820Z,14.20
2018-07-17T19:00:27.698Z,14.30
2018-07-17T19:02:56.506Z,14.70
2018-07-17T19:05:25.302Z,14.90
2018-07-17T19:07:54.134Z,15.10
2018-07-17T19:10:22.987Z,15.60
2018-07-17T19:12:51.924Z,16.20
2018-07-17T19:15:20.726Z,16.70
2018-07-17T19:17:49.539Z,17.20
2018-07-17T19:20:18.379Z,17.50
2018-07-17T19:22:47.204Z,17.40
2018-07-17T19:25:16.026Z,17.40
2018-07-17T19:27:44.881Z,17.40
2018-07-17T19:30:13.820Z,17.40
2018-07-17T19:32:42.596Z,17.90
2018-07-17T19:35:11.557Z,18.10
2018-07-17T19:37:40.343Z,18.20
2018-07-17T19:40:09.236Z,18.30
2018-07-17T19:42:38.120Z,18.50
2018-07-17T19:45:07.102Z,18.60
2018-07-17T19:47:35.907Z,18.80
2018-07-17T19:50:06.029Z,18.90
2018-07-17T19:52:34.970Z,18.90
2018-07-17T19:55:03.812Z,18.90
2018-07-17T19:57:32.607Z,19.10
2018-07-17T20:00:01.496Z,19.10
2018-07-17T20:02:30.299Z,19.20
2018-07-17T20:04:59.195Z,19.60
2018-07-17T20:07:27.982Z,19.60
2018-07-17T20:09:56.819Z,19.90
2018-07-17T20:12:25.703Z,20.00
2018-07-17T20:14:54.690Z,20.00
2018-07-17T20:17:23.561Z,20.20
2018-07-17T20:19:52.394Z,20.50
2018-07-17T20:22:21.256Z,20.70
2018-07-17T20:24:50.068Z,20.90
2018-07-17T20:27:19.237Z,21.30
2018-07-17T20:29:48.133Z,21.60
2018-07-17T20:32:16.984Z,21.70
2018-07-17T20:34:45.792Z,23.30
2018-07-17T20:37:14.639Z,22.60
2018-07-17T20:39:43.463Z,22.90
2018-07-17T20:42:12.304Z,23.00
2018-07-17T20:44:41.189Z,23.40
2018-07-17T20:47:10.008Z,23.70
2018-07-17T20:49:38.868Z,23.90
2018-07-17T20:52:07.764Z,23.90
2018-07-17T20:54:36.566Z,24.10
2018-07-17T20:57:05.440Z,24.70
2018-07-17T20:59:34.247Z,25.50
2018-07-17T21:02:03.061Z,24.40
2018-07-17T21:04:32.097Z,24.80
2018-07-17T21:07:00.993Z,24.60
2018-07-17T21:09:29.856Z,24.60
2018-07-17T21:11:58.654Z,25.10
2018-07-17T21:14:27.445Z,24.80
2018-07-17T21:16:56.262Z,24.70
2018-07-17T21:19:25.128Z,24.80
2018-07-17T21:21:54.123Z,24.70
2018-07-17T21:24:22.946Z,24.90
2018-07-17T21:26:51.849Z,25.30
2018-07-17T21:29:20.744Z,25.20
2018-07-17T21:31:49.579Z,25.40
2018-07-17T21:34:18.429Z,25.30
2018-07-17T21:36:47.272Z,25.30
2018-07-17T21:39:16.127Z,26.00
2018-07-17T21:41:44.948Z,25.80
2018-07-17T21:44:13.776Z,26.50
2018-07-17T21:46:42.591Z,26.20
2018-07-17T21:49:11.428Z,26.60
2018-07-17T21:51:40.243Z,26.20
2018-07-17T21:54:09.395Z,26.40
2018-07-17T21:56:38.229Z,26.40
2018-07-17T21:59:07.093Z,26.50
2018-07-17T22:01:35.915Z,26.40
2018-07-17T22:04:04.806Z,26.60
2018-07-17T22:06:33.640Z,27.20
2018-07-17T22:09:02.468Z,27.20
2018-07-17T22:11:31.279Z,27.20
2018-07-17T22:14:00.186Z,27.20
2018-07-17T22:16:29.021Z,27.00
2018-07-17T22:18:57.898Z,27.10
2018-07-17T22:21:26.736Z,27.10
2018-07-17T22:23:55.618Z,27.10
2018-07-17T22:26:24.422Z,27.10
2018-07-17T22:28:53.280Z,27.10
2018-07-17T22:31:22.157Z,27.10
2018-07-17T22:33:51.019Z,26.90
2018-07-17T22:36:19.818Z,26.90
2018-07-17T22:38:48.677Z,26.90
2018-07-17T22:41:17.528Z,26.90
2018-07-17T22:43:46.499Z,26.90
2018-07-17T22:46:15.360Z,26.90
2018-07-17T22:48:44.182Z,26.90
2018-07-17T22:51:13.105Z,26.90
2018-07-17T22:53:41.891Z,26.90
2018-07-17T22:56:11.003Z,27.20
2018-07-17T22:58:39.815Z,27.60
2018-07-17T23:01:08.657Z,28.30
2018-07-17T23:03:37.500Z,29.00
2018-07-17T23:06:06.364Z,29.80
2018-07-17T23:08:35.187Z,29.80
2018-07-17T23:11:03.999Z,30.10
2018-07-17T23:13:32.891Z,30.00
2018-07-17T23:16:01.769Z,29.90
2018-07-17T23:18:30.567Z,30.10
2018-07-17T23:20:59.404Z,30.00
2018-07-17T23:23:28.231Z,30.00
2018-07-17T23:25:57.083Z,30.00
2018-07-17T23:28:25.936Z,29.80
2018-07-17T23:30:54.734Z,29.80
2018-07-17T23:33:23.601Z,29.90
2018-07-17T23:35:52.426Z,30.00
2018-07-17T23:38:21.281Z,29.70
2018-07-17T23:40:50.082Z,29.60
2018-07-17T23:43:18.913Z,29.70
2018-07-17T23:45:47.796Z,30.10
2018-07-17T23:48:16.630Z,30.70
2018-07-17T23:50:45.489Z,30.70
2018-07-17T23:53:14.399Z,30.80
2018-07-17T23:55:43.229Z,31.00
2018-07-17T23:58:12.064Z,31.00
